sensor_id;sensor_type;location;lat;lon;timestamp;temperature;humidity
7658;DHT22;8462;53.156;8.220;2023-03-01T00:02:16;3.50;80.20
7658;DHT22;8462;53.156;8.220;2023-03-01T00:04:43;3.50;80.10
7658;DHT22;8462;53.156;8.220;2023-03-01T00:07:10;3.50;80.00
7658;DHT22;8462;53.156;8.220;2023-03-01T00:09:37;3.50;80.10
7658;DHT22;8462;53.156;8.220;2023-03-01T00:12:07;3.50;80.30
7658;DHT22;8462;53.156;8.220;2023-03-01T00:14:33;3.50;80.70
7658;DHT22;8462;53.156;8.220;2023-03-01T00:17:02;3.50;80.60
7658;DHT22;8462;53.156;8.220;2023-03-01T00:19:29;3.50;80.70
7658;DHT22;8462;53.156;8.220;2023-03-01T00:21:55;3.40;81.10
7658;DHT22;8462;53.156;8.220;2023-03-01T00:24:22;3.40;81.10
7658;DHT22;8462;53.156;8.220;2023-03-01T00:26:53;3.40;81.30
7658;DHT22;8462;53.156;8.220;2023-03-01T00:29:23;3.40;81.20
7658;DHT22;8462;53.156;8.220;2023-03-01T00:31:50;3.40;81.20
7658;DHT22;8462;53.156;8.220;2023-03-01T00:34:16;3.40;81.00
7658;DHT22;8462;53.156;8.220;2023-03-01T00:36:43;3.50;80.90
7658;DHT22;8462;53.156;8.220;2023-03-01T00:39:12;3.40;80.80
7658;DHT22;8462;53.156;8.220;2023-03-01T00:41:40;3.40;80.90
7658;DHT22;8462;53.156;8.220;2023-03-01T00:44:07;3.40;80.90
7658;DHT22;8462;53.156;8.220;2023-03-01T00:46:36;3.40;80.80
7658;DHT22;8462;53.156;8.220;2023-03-01T00:49:04;3.40;81.40
7658;DHT22;8462;53.156;8.220;2023-03-01T00:51:31;3.30;81.70
7658;DHT22;8462;53.156;8.220;2023-03-01T00:53:59;3.30;81.60
7658;DHT22;8462;53.156;8.220;2023-03-01T00:56:27;3.30;81.70
7658;DHT22;8462;53.156;8.220;2023-03-01T00:58:55;3.30;81.60
7658;DHT22;8462;53.156;8.220;2023-03-01T01:01:25;3.20;82.50
7658;DHT22;8462;53.156;8.220;2023-03-01T01:03:56;3.20;82.30
7658;DHT22;8462;53.156;8.220;2023-03-01T01:06:25;3.20;81.90
7658;DHT22;8462;53.156;8.220;2023-03-01T01:08:53;3.10;81.50
7658;DHT22;8462;53.156;8.220;2023-03-01T01:11:21;3.10;81.90
7658;DHT22;8462;53.156;8.220;2023-03-01T01:13:49;3.10;81.80
7658;DHT22;8462;53.156;8.220;2023-03-01T01:16:20;3.10;81.60
7658;DHT22;8462;53.156;8.220;2023-03-01T01:18:48;3.10;81.30
7658;DHT22;8462;53.156;8.220;2023-03-01T01:21:22;3.10;82.10
7658;DHT22;8462;53.156;8.220;2023-03-01T01:23:50;3.10;81.40
7658;DHT22;8462;53.156;8.220;2023-03-01T01:26:18;3.00;81.30
7658;DHT22;8462;53.156;8.220;2023-03-01T01:28:47;3.00;81.20
7658;DHT22;8462;53.156;8.220;2023-03-01T01:31:14;3.00;81.00
7658;DHT22;8462;53.156;8.220;2023-03-01T01:33:41;3.00;80.70
7658;DHT22;8462;53.156;8.220;2023-03-01T01:36:09;3.00;80.80
7658;DHT22;8462;53.156;8.220;2023-03-01T01:38:38;3.00;80.60
7658;DHT22;8462;53.156;8.220;2023-03-01T01:41:05;2.90;80.70
7658;DHT22;8462;53.156;8.220;2023-03-01T01:43:35;2.90;80.70
7658;DHT22;8462;53.156;8.220;2023-03-01T01:46:04;2.90;80.70
7658;DHT22;8462;53.156;8.220;2023-03-01T01:48:42;2.80;80.70
7658;DHT22;8462;53.156;8.220;2023-03-01T01:51:12;2.80;80.90
7658;DHT22;8462;53.156;8.220;2023-03-01T01:53:42;2.80;80.90
7658;DHT22;8462;53.156;8.220;2023-03-01T01:56:13;2.70;80.70
7658;DHT22;8462;53.156;8.220;2023-03-01T01:58:41;2.70;80.70
7658;DHT22;8462;53.156;8.220;2023-03-01T02:01:09;2.70;80.80
7658;DHT22;8462;53.156;8.220;2023-03-01T02:03:39;2.60;81.30
7658;DHT22;8462;53.156;8.220;2023-03-01T02:06:17;2.60;81.50
7658;DHT22;8462;53.156;8.220;2023-03-01T02:08:47;2.50;81.70
7658;DHT22;8462;53.156;8.220;2023-03-01T02:11:15;2.50;81.70
7658;DHT22;8462;53.156;8.220;2023-03-01T02:13:44;2.50;81.90
7658;DHT22;8462;53.156;8.220;2023-03-01T02:16:13;2.50;82.00
7658;DHT22;8462;53.156;8.220;2023-03-01T02:18:41;2.50;82.20
7658;DHT22;8462;53.156;8.220;2023-03-01T02:21:23;2.50;82.30
7658;DHT22;8462;53.156;8.220;2023-03-01T02:23:54;2.50;82.30
7658;DHT22;8462;53.156;8.220;2023-03-01T02:26:28;2.60;82.20
7658;DHT22;8462;53.156;8.220;2023-03-01T02:29:00;2.60;81.80
7658;DHT22;8462;53.156;8.220;2023-03-01T02:31:27;2.50;81.50
7658;DHT22;8462;53.156;8.220;2023-03-01T02:34:13;2.50;81.70
7658;DHT22;8462;53.156;8.220;2023-03-01T02:36:43;2.50;81.40
7658;DHT22;8462;53.156;8.220;2023-03-01T02:39:14;2.50;81.60
7658;DHT22;8462;53.156;8.220;2023-03-01T02:41:46;2.50;81.80
7658;DHT22;8462;53.156;8.220;2023-03-01T02:44:14;2.40;81.90
7658;DHT22;8462;53.156;8.220;2023-03-01T02:46:43;2.40;82.20
7658;DHT22;8462;53.156;8.220;2023-03-01T02:49:21;2.40;82.60
7658;DHT22;8462;53.156;8.220;2023-03-01T02:52:09;2.30;83.00
7658;DHT22;8462;53.156;8.220;2023-03-01T02:54:41;2.30;83.10
7658;DHT22;8462;53.156;8.220;2023-03-01T02:57:10;2.30;82.80
7658;DHT22;8462;53.156;8.220;2023-03-01T02:59:40;2.30;82.80
7658;DHT22;8462;53.156;8.220;2023-03-01T03:02:19;2.30;82.90
7658;DHT22;8462;53.156;8.220;2023-03-01T03:05:04;2.30;83.00
7658;DHT22;8462;53.156;8.220;2023-03-01T03:07:36;2.30;83.00
7658;DHT22;8462;53.156;8.220;2023-03-01T03:10:05;2.20;84.40
7658;DHT22;8462;53.156;8.220;2023-03-01T03:12:33;2.20;84.30
7658;DHT22;8462;53.156;8.220;2023-03-01T03:15:01;2.20;84.30
7658;DHT22;8462;53.156;8.220;2023-03-01T03:17:34;2.20;84.20
7658;DHT22;8462;53.156;8.220;2023-03-01T03:20:01;2.30;83.60
7658;DHT22;8462;53.156;8.220;2023-03-01T03:22:29;2.30;83.00
7658;DHT22;8462;53.156;8.220;2023-03-01T03:24:56;2.30;82.40
7658;DHT22;8462;53.156;8.220;2023-03-01T03:27:23;2.20;82.30
7658;DHT22;8462;53.156;8.220;2023-03-01T03:29:50;2.30;82.50
7658;DHT22;8462;53.156;8.220;2023-03-01T03:32:18;2.20;82.60
7658;DHT22;8462;53.156;8.220;2023-03-01T03:34:45;2.20;82.90
7658;DHT22;8462;53.156;8.220;2023-03-01T03:37:11;2.20;83.10
7658;DHT22;8462;53.156;8.220;2023-03-01T03:39:52;2.20;83.20
7658;DHT22;8462;53.156;8.220;2023-03-01T03:42:20;2.20;83.20
7658;DHT22;8462;53.156;8.220;2023-03-01T03:44:48;2.20;83.10
7658;DHT22;8462;53.156;8.220;2023-03-01T03:47:15;2.30;82.80
7658;DHT22;8462;53.156;8.220;2023-03-01T03:49:43;2.30;82.70
7658;DHT22;8462;53.156;8.220;2023-03-01T03:52:10;2.30;82.40
7658;DHT22;8462;53.156;8.220;2023-03-01T03:54:39;2.30;82.30
7658;DHT22;8462;53.156;8.220;2023-03-01T03:57:06;2.30;82.40
7658;DHT22;8462;53.156;8.220;2023-03-01T03:59:33;2.30;82.50
7658;DHT22;8462;53.156;8.220;2023-03-01T04:02:00;2.30;82.40
7658;DHT22;8462;53.156;8.220;2023-03-01T04:04:27;2.30;82.30
7658;DHT22;8462;53.156;8.220;2023-03-01T04:06:55;2.30;82.10
7658;DHT22;8462;53.156;8.220;2023-03-01T04:09:22;2.30;82.00
7658;DHT22;8462;53.156;8.220;2023-03-01T04:11:48;2.30;81.70
7658;DHT22;8462;53.156;8.220;2023-03-01T04:14:15;2.30;81.90
7658;DHT22;8462;53.156;8.220;2023-03-01T04:16:42;2.30;82.00
7658;DHT22;8462;53.156;8.220;2023-03-01T04:19:09;2.30;82.10
7658;DHT22;8462;53.156;8.220;2023-03-01T04:21:36;2.30;81.90
7658;DHT22;8462;53.156;8.220;2023-03-01T04:24:05;2.20;81.80
7658;DHT22;8462;53.156;8.220;2023-03-01T04:26:32;2.20;81.90
7658;DHT22;8462;53.156;8.220;2023-03-01T04:28:59;2.20;81.90
7658;DHT22;8462;53.156;8.220;2023-03-01T04:31:25;2.10;82.00
7658;DHT22;8462;53.156;8.220;2023-03-01T04:33:55;2.10;82.20
7658;DHT22;8462;53.156;8.220;2023-03-01T04:36:23;2.00;82.60
7658;DHT22;8462;53.156;8.220;2023-03-01T04:38:50;2.00;82.40
7658;DHT22;8462;53.156;8.220;2023-03-01T04:41:20;2.00;82.40
7658;DHT22;8462;53.156;8.220;2023-03-01T04:43:48;1.90;82.50
7658;DHT22;8462;53.156;8.220;2023-03-01T04:46:17;1.90;82.60
7658;DHT22;8462;53.156;8.220;2023-03-01T04:48:45;1.90;82.70
7658;DHT22;8462;53.156;8.220;2023-03-01T04:51:13;1.80;82.50
7658;DHT22;8462;53.156;8.220;2023-03-01T04:53:41;1.80;82.60
7658;DHT22;8462;53.156;8.220;2023-03-01T04:56:08;1.80;82.80
7658;DHT22;8462;53.156;8.220;2023-03-01T04:58:37;1.80;82.70
7658;DHT22;8462;53.156;8.220;2023-03-01T05:01:08;1.70;82.70
7658;DHT22;8462;53.156;8.220;2023-03-01T05:03:41;1.70;82.90
7658;DHT22;8462;53.156;8.220;2023-03-01T05:06:08;1.70;83.10
7658;DHT22;8462;53.156;8.220;2023-03-01T05:08:36;1.70;83.50
7658;DHT22;8462;53.156;8.220;2023-03-01T05:11:04;1.70;83.20
7658;DHT22;8462;53.156;8.220;2023-03-01T05:13:35;1.70;83.20
7658;DHT22;8462;53.156;8.220;2023-03-01T05:16:05;1.70;83.10
7658;DHT22;8462;53.156;8.220;2023-03-01T05:18:33;1.70;82.90
7658;DHT22;8462;53.156;8.220;2023-03-01T05:21:03;1.70;82.80
7658;DHT22;8462;53.156;8.220;2023-03-01T05:23:31;1.60;82.80
7658;DHT22;8462;53.156;8.220;2023-03-01T05:25:58;1.60;83.10
7658;DHT22;8462;53.156;8.220;2023-03-01T05:28:26;1.60;83.10
7658;DHT22;8462;53.156;8.220;2023-03-01T05:30:53;1.60;83.20
7658;DHT22;8462;53.156;8.220;2023-03-01T05:33:22;1.60;83.20
7658;DHT22;8462;53.156;8.220;2023-03-01T05:35:50;1.50;83.00
7658;DHT22;8462;53.156;8.220;2023-03-01T05:38:18;1.60;83.40
7658;DHT22;8462;53.156;8.220;2023-03-01T05:40:48;1.50;83.60
7658;DHT22;8462;53.156;8.220;2023-03-01T05:43:16;1.60;83.80
7658;DHT22;8462;53.156;8.220;2023-03-01T05:45:44;1.60;83.60
7658;DHT22;8462;53.156;8.220;2023-03-01T05:48:12;1.60;83.60
7658;DHT22;8462;53.156;8.220;2023-03-01T05:50:42;1.60;83.40
7658;DHT22;8462;53.156;8.220;2023-03-01T05:53:12;1.60;83.50
7658;DHT22;8462;53.156;8.220;2023-03-01T05:55:39;1.60;83.80
7658;DHT22;8462;53.156;8.220;2023-03-01T05:58:13;1.60;84.10
7658;DHT22;8462;53.156;8.220;2023-03-01T06:00:41;1.60;84.00
7658;DHT22;8462;53.156;8.220;2023-03-01T06:03:10;1.70;83.60
7658;DHT22;8462;53.156;8.220;2023-03-01T06:05:41;1.70;83.30
7658;DHT22;8462;53.156;8.220;2023-03-01T06:08:09;1.70;83.20
7658;DHT22;8462;53.156;8.220;2023-03-01T06:10:37;1.70;82.80
7658;DHT22;8462;53.156;8.220;2023-03-01T06:13:04;1.70;82.70
7658;DHT22;8462;53.156;8.220;2023-03-01T06:15:31;1.80;82.40
7658;DHT22;8462;53.156;8.220;2023-03-01T06:17:58;1.80;82.10
7658;DHT22;8462;53.156;8.220;2023-03-01T06:20:26;1.70;82.20
7658;DHT22;8462;53.156;8.220;2023-03-01T06:22:55;1.70;82.30
7658;DHT22;8462;53.156;8.220;2023-03-01T06:25:24;1.70;82.50
7658;DHT22;8462;53.156;8.220;2023-03-01T06:27:52;1.70;82.60
7658;DHT22;8462;53.156;8.220;2023-03-01T06:30:20;1.70;82.90
7658;DHT22;8462;53.156;8.220;2023-03-01T06:32:47;1.80;83.20
7658;DHT22;8462;53.156;8.220;2023-03-01T06:35:16;1.80;83.20
7658;DHT22;8462;53.156;8.220;2023-03-01T06:37:44;1.90;83.20
7658;DHT22;8462;53.156;8.220;2023-03-01T06:40:13;1.90;83.00
7658;DHT22;8462;53.156;8.220;2023-03-01T06:42:42;2.00;82.90
7658;DHT22;8462;53.156;8.220;2023-03-01T06:45:10;2.10;82.60
7658;DHT22;8462;53.156;8.220;2023-03-01T06:47:37;2.10;82.40
7658;DHT22;8462;53.156;8.220;2023-03-01T06:50:04;2.20;82.20
7658;DHT22;8462;53.156;8.220;2023-03-01T06:52:31;2.20;82.20
7658;DHT22;8462;53.156;8.220;2023-03-01T06:54:58;2.30;82.20
7658;DHT22;8462;53.156;8.220;2023-03-01T06:57:27;2.40;81.60
7658;DHT22;8462;53.156;8.220;2023-03-01T06:59:54;2.40;81.50
7658;DHT22;8462;53.156;8.220;2023-03-01T07:02:21;2.50;81.50
7658;DHT22;8462;53.156;8.220;2023-03-01T07:04:49;2.50;81.60
7658;DHT22;8462;53.156;8.220;2023-03-01T07:07:16;2.60;81.80
7658;DHT22;8462;53.156;8.220;2023-03-01T07:09:43;2.70;81.70
7658;DHT22;8462;53.156;8.220;2023-03-01T07:12:10;2.80;81.00
7658;DHT22;8462;53.156;8.220;2023-03-01T07:14:38;2.90;80.90
7658;DHT22;8462;53.156;8.220;2023-03-01T07:17:05;3.10;82.40
7658;DHT22;8462;53.156;8.220;2023-03-01T07:19:32;3.40;80.20
7658;DHT22;8462;53.156;8.220;2023-03-01T07:21:59;3.50;78.60
7658;DHT22;8462;53.156;8.220;2023-03-01T07:24:26;3.60;78.20
7658;DHT22;8462;53.156;8.220;2023-03-01T07:26:53;3.60;77.20
7658;DHT22;8462;53.156;8.220;2023-03-01T07:29:20;3.40;76.90
7658;DHT22;8462;53.156;8.220;2023-03-01T07:31:48;3.30;77.60
7658;DHT22;8462;53.156;8.220;2023-03-01T07:34:15;3.20;78.40
7658;DHT22;8462;53.156;8.220;2023-03-01T07:36:42;3.20;78.20
7658;DHT22;8462;53.156;8.220;2023-03-01T07:39:11;3.10;78.70
7658;DHT22;8462;53.156;8.220;2023-03-01T07:41:38;3.10;79.60
7658;DHT22;8462;53.156;8.220;2023-03-01T07:44:05;3.10;80.00
7658;DHT22;8462;53.156;8.220;2023-03-01T07:46:32;3.10;80.30
7658;DHT22;8462;53.156;8.220;2023-03-01T07:49:00;3.20;80.10
7658;DHT22;8462;53.156;8.220;2023-03-01T07:51:29;3.30;80.00
7658;DHT22;8462;53.156;8.220;2023-03-01T07:53:56;3.40;80.10
7658;DHT22;8462;53.156;8.220;2023-03-01T07:56:22;3.40;79.80
7658;DHT22;8462;53.156;8.220;2023-03-01T07:58:49;3.60;80.40
7658;DHT22;8462;53.156;8.220;2023-03-01T08:01:17;3.70;79.10
7658;DHT22;8462;53.156;8.220;2023-03-01T08:03:44;3.80;79.20
7658;DHT22;8462;53.156;8.220;2023-03-01T08:06:14;3.90;78.50
7658;DHT22;8462;53.156;8.220;2023-03-01T08:08:41;4.00;78.10
7658;DHT22;8462;53.156;8.220;2023-03-01T08:11:11;4.10;78.20
7658;DHT22;8462;53.156;8.220;2023-03-01T08:13:38;4.20;79.20
7658;DHT22;8462;53.156;8.220;2023-03-01T08:16:08;4.40;78.50
7658;DHT22;8462;53.156;8.220;2023-03-01T08:18:36;4.60;78.30
7658;DHT22;8462;53.156;8.220;2023-03-01T08:21:04;4.80;78.20
7658;DHT22;8462;53.156;8.220;2023-03-01T08:23:32;5.00;76.50
7658;DHT22;8462;53.156;8.220;2023-03-01T08:26:08;5.00;76.20
7658;DHT22;8462;53.156;8.220;2023-03-01T08:28:37;5.20;76.20
7658;DHT22;8462;53.156;8.220;2023-03-01T08:31:16;5.40;76.20
7658;DHT22;8462;53.156;8.220;2023-03-01T08:33:43;5.60;75.00
7658;DHT22;8462;53.156;8.220;2023-03-01T08:36:16;5.70;74.80
7658;DHT22;8462;53.156;8.220;2023-03-01T08:38:44;5.90;74.40
7658;DHT22;8462;53.156;8.220;2023-03-01T08:41:11;5.90;73.60
7658;DHT22;8462;53.156;8.220;2023-03-01T08:43:38;6.10;73.50
7658;DHT22;8462;53.156;8.220;2023-03-01T08:46:05;6.40;71.60
7658;DHT22;8462;53.156;8.220;2023-03-01T08:48:32;6.60;70.20
7658;DHT22;8462;53.156;8.220;2023-03-01T08:51:07;6.80;69.80
7658;DHT22;8462;53.156;8.220;2023-03-01T08:53:34;6.90;69.70
7658;DHT22;8462;53.156;8.220;2023-03-01T08:56:02;7.10;70.20
7658;DHT22;8462;53.156;8.220;2023-03-01T08:58:30;7.40;69.50
7658;DHT22;8462;53.156;8.220;2023-03-01T09:00:57;7.60;68.10
7658;DHT22;8462;53.156;8.220;2023-03-01T09:03:26;7.90;66.90
7658;DHT22;8462;53.156;8.220;2023-03-01T09:05:53;8.10;66.70
7658;DHT22;8462;53.156;8.220;2023-03-01T09:08:20;8.30;65.40
7658;DHT22;8462;53.156;8.220;2023-03-01T09:10:47;8.40;64.80
7658;DHT22;8462;53.156;8.220;2023-03-01T09:13:15;8.50;64.40
7658;DHT22;8462;53.156;8.220;2023-03-01T09:15:42;8.50;63.80
7658;DHT22;8462;53.156;8.220;2023-03-01T09:18:09;8.60;64.00
7658;DHT22;8462;53.156;8.220;2023-03-01T09:20:36;8.70;64.00
7658;DHT22;8462;53.156;8.220;2023-03-01T09:23:04;8.70;62.60
7658;DHT22;8462;53.156;8.220;2023-03-01T09:25:33;8.80;61.20
7658;DHT22;8462;53.156;8.220;2023-03-01T09:28:01;8.90;61.90
7658;DHT22;8462;53.156;8.220;2023-03-01T09:30:30;8.90;60.40
7658;DHT22;8462;53.156;8.220;2023-03-01T09:32:57;8.90;60.70
7658;DHT22;8462;53.156;8.220;2023-03-01T09:35:24;9.10;60.80
7658;DHT22;8462;53.156;8.220;2023-03-01T09:37:51;9.20;60.60
7658;DHT22;8462;53.156;8.220;2023-03-01T09:40:20;9.40;59.80
7658;DHT22;8462;53.156;8.220;2023-03-01T09:42:53;9.50;58.40
7658;DHT22;8462;53.156;8.220;2023-03-01T09:45:27;9.50;57.20
7658;DHT22;8462;53.156;8.220;2023-03-01T09:47:57;9.50;55.70
7658;DHT22;8462;53.156;8.220;2023-03-01T09:50:26;9.70;57.10
7658;DHT22;8462;53.156;8.220;2023-03-01T09:53:00;9.80;55.30
7658;DHT22;8462;53.156;8.220;2023-03-01T09:55:31;9.80;55.90
7658;DHT22;8462;53.156;8.220;2023-03-01T09:58:06;9.90;54.60
7658;DHT22;8462;53.156;8.220;2023-03-01T10:00:47;10.10;53.70
7658;DHT22;8462;53.156;8.220;2023-03-01T10:03:22;10.00;54.20
7658;DHT22;8462;53.156;8.220;2023-03-01T10:06:01;10.10;53.00
7658;DHT22;8462;53.156;8.220;2023-03-01T10:08:34;10.00;52.90
7658;DHT22;8462;53.156;8.220;2023-03-01T10:11:08;9.90;54.50
7658;DHT22;8462;53.156;8.220;2023-03-01T10:13:47;10.00;54.10
7658;DHT22;8462;53.156;8.220;2023-03-01T10:16:22;10.20;54.20
7658;DHT22;8462;53.156;8.220;2023-03-01T10:18:56;10.30;51.90
7658;DHT22;8462;53.156;8.220;2023-03-01T10:21:26;10.20;51.00
7658;DHT22;8462;53.156;8.220;2023-03-01T10:24:04;10.20;51.50
7658;DHT22;8462;53.156;8.220;2023-03-01T10:26:44;10.20;51.70
7658;DHT22;8462;53.156;8.220;2023-03-01T10:29:15;10.20;50.90
7658;DHT22;8462;53.156;8.220;2023-03-01T10:31:43;10.20;50.80
7658;DHT22;8462;53.156;8.220;2023-03-01T10:34:15;10.10;51.20
7658;DHT22;8462;53.156;8.220;2023-03-01T10:36:44;10.20;52.10
7658;DHT22;8462;53.156;8.220;2023-03-01T10:39:14;10.10;51.10
7658;DHT22;8462;53.156;8.220;2023-03-01T10:41:54;10.10;51.00
7658;DHT22;8462;53.156;8.220;2023-03-01T10:44:39;10.00;51.20
7658;DHT22;8462;53.156;8.220;2023-03-01T10:47:14;10.00;52.50
7658;DHT22;8462;53.156;8.220;2023-03-01T10:49:53;10.10;52.50
7658;DHT22;8462;53.156;8.220;2023-03-01T10:52:28;10.10;51.70
7658;DHT22;8462;53.156;8.220;2023-03-01T10:54:57;10.00;52.00
7658;DHT22;8462;53.156;8.220;2023-03-01T10:57:33;10.00;52.60
7658;DHT22;8462;53.156;8.220;2023-03-01T11:00:24;10.00;52.50
7658;DHT22;8462;53.156;8.220;2023-03-01T11:03:09;10.00;53.50
7658;DHT22;8462;53.156;8.220;2023-03-01T11:05:54;10.10;54.30
7658;DHT22;8462;53.156;8.220;2023-03-01T11:08:39;10.20;54.20
7658;DHT22;8462;53.156;8.220;2023-03-01T11:11:17;10.20;53.80
7658;DHT22;8462;53.156;8.220;2023-03-01T11:13:56;10.30;53.90
7658;DHT22;8462;53.156;8.220;2023-03-01T11:16:32;10.30;54.60
7658;DHT22;8462;53.156;8.220;2023-03-01T11:19:14;10.30;53.90
7658;DHT22;8462;53.156;8.220;2023-03-01T11:21:54;10.10;54.90
7658;DHT22;8462;53.156;8.220;2023-03-01T11:24:29;10.00;55.60
7658;DHT22;8462;53.156;8.220;2023-03-01T11:26:59;10.10;56.00
7658;DHT22;8462;53.156;8.220;2023-03-01T11:29:34;10.10;55.50
7658;DHT22;8462;53.156;8.220;2023-03-01T11:32:05;10.00;56.00
7658;DHT22;8462;53.156;8.220;2023-03-01T11:34:45;9.90;56.50
7658;DHT22;8462;53.156;8.220;2023-03-01T11:37:22;9.90;57.10
7658;DHT22;8462;53.156;8.220;2023-03-01T11:39:56;9.80;57.70
7658;DHT22;8462;53.156;8.220;2023-03-01T11:42:29;9.60;58.10
7658;DHT22;8462;53.156;8.220;2023-03-01T11:45:05;9.60;58.90
7658;DHT22;8462;53.156;8.220;2023-03-01T11:50:29;9.60;59.60
7658;DHT22;8462;53.156;8.220;2023-03-01T11:53:11;9.70;59.90
7658;DHT22;8462;53.156;8.220;2023-03-01T11:55:55;9.80;59.50
7658;DHT22;8462;53.156;8.220;2023-03-01T11:58:53;9.90;59.70
7658;DHT22;8462;53.156;8.220;2023-03-01T12:01:35;10.10;59.30
7658;DHT22;8462;53.156;8.220;2023-03-01T12:07:07;10.00;59.60
7658;DHT22;8462;53.156;8.220;2023-03-01T12:09:49;9.90;59.60
7658;DHT22;8462;53.156;8.220;2023-03-01T12:12:43;9.90;60.50
7658;DHT22;8462;53.156;8.220;2023-03-01T12:15:39;9.90;60.20
7658;DHT22;8462;53.156;8.220;2023-03-01T12:18:44;9.90;60.30
7658;DHT22;8462;53.156;8.220;2023-03-01T12:21:24;9.80;61.40
7658;DHT22;8462;53.156;8.220;2023-03-01T12:24:22;9.90;61.00
7658;DHT22;8462;53.156;8.220;2023-03-01T12:27:07;9.80;61.30
7658;DHT22;8462;53.156;8.220;2023-03-01T12:29:40;9.80;61.70
7658;DHT22;8462;53.156;8.220;2023-03-01T12:32:28;9.80;62.00
7658;DHT22;8462;53.156;8.220;2023-03-01T12:35:25;9.80;61.80
7658;DHT22;8462;53.156;8.220;2023-03-01T12:38:01;9.90;62.10
7658;DHT22;8462;53.156;8.220;2023-03-01T12:40:51;10.00;61.20
7658;DHT22;8462;53.156;8.220;2023-03-01T12:43:29;10.10;61.30
7658;DHT22;8462;53.156;8.220;2023-03-01T12:46:10;10.30;61.20
7658;DHT22;8462;53.156;8.220;2023-03-01T12:48:48;10.30;60.30
7658;DHT22;8462;53.156;8.220;2023-03-01T12:51:20;10.40;59.90
7658;DHT22;8462;53.156;8.220;2023-03-01T12:53:53;10.40;59.60
7658;DHT22;8462;53.156;8.220;2023-03-01T12:56:23;10.30;60.20
7658;DHT22;8462;53.156;8.220;2023-03-01T12:59:01;10.30;60.50
7658;DHT22;8462;53.156;8.220;2023-03-01T13:01:42;10.40;60.30
7658;DHT22;8462;53.156;8.220;2023-03-01T13:04:27;10.40;59.70
7658;DHT22;8462;53.156;8.220;2023-03-01T13:07:09;10.40;60.30
7658;DHT22;8462;53.156;8.220;2023-03-01T13:09:40;10.30;60.20
7658;DHT22;8462;53.156;8.220;2023-03-01T13:12:44;10.30;60.70
7658;DHT22;8462;53.156;8.220;2023-03-01T13:15:31;10.30;60.90
7658;DHT22;8462;53.156;8.220;2023-03-01T13:18:00;10.50;61.30
7658;DHT22;8462;53.156;8.220;2023-03-01T13:20:31;10.60;60.60
7658;DHT22;8462;53.156;8.220;2023-03-01T13:23:08;10.50;61.00
7658;DHT22;8462;53.156;8.220;2023-03-01T13:26:04;10.50;61.10
7658;DHT22;8462;53.156;8.220;2023-03-01T13:32:01;10.50;61.70
7658;DHT22;8462;53.156;8.220;2023-03-01T13:34:50;10.40;61.50
7658;DHT22;8462;53.156;8.220;2023-03-01T13:37:27;10.30;62.20
7658;DHT22;8462;53.156;8.220;2023-03-01T13:39:59;10.30;62.20
7658;DHT22;8462;53.156;8.220;2023-03-01T13:42:38;10.20;62.60
7658;DHT22;8462;53.156;8.220;2023-03-01T13:45:34;10.10;62.70
7658;DHT22;8462;53.156;8.220;2023-03-01T13:48:09;10.00;63.10
7658;DHT22;8462;53.156;8.220;2023-03-01T13:50:43;9.90;63.10
7658;DHT22;8462;53.156;8.220;2023-03-01T13:53:17;9.90;63.60
7658;DHT22;8462;53.156;8.220;2023-03-01T13:55:47;10.00;63.50
7658;DHT22;8462;53.156;8.220;2023-03-01T13:58:19;10.10;63.10
7658;DHT22;8462;53.156;8.220;2023-03-01T14:00:56;10.10;63.20
7658;DHT22;8462;53.156;8.220;2023-03-01T14:03:24;10.30;63.10
7658;DHT22;8462;53.156;8.220;2023-03-01T14:06:03;10.40;62.70
7658;DHT22;8462;53.156;8.220;2023-03-01T14:08:32;10.40;62.50
7658;DHT22;8462;53.156;8.220;2023-03-01T14:14:32;10.60;62.20
7658;DHT22;8462;53.156;8.220;2023-03-01T14:17:22;10.50;62.40
7658;DHT22;8462;53.156;8.220;2023-03-01T14:19:58;10.40;62.70
7658;DHT22;8462;53.156;8.220;2023-03-01T14:22:27;10.40;63.60
7658;DHT22;8462;53.156;8.220;2023-03-01T14:24:56;10.40;62.60
7658;DHT22;8462;53.156;8.220;2023-03-01T14:27:26;10.30;62.60
7658;DHT22;8462;53.156;8.220;2023-03-01T14:29:57;10.30;62.90
7658;DHT22;8462;53.156;8.220;2023-03-01T14:32:26;10.30;63.40
7658;DHT22;8462;53.156;8.220;2023-03-01T14:34:53;10.40;63.20
7658;DHT22;8462;53.156;8.220;2023-03-01T14:37:25;10.40;63.40
7658;DHT22;8462;53.156;8.220;2023-03-01T14:39:53;10.40;63.70
7658;DHT22;8462;53.156;8.220;2023-03-01T14:42:22;10.30;63.90
7658;DHT22;8462;53.156;8.220;2023-03-01T14:44:52;10.30;64.20
7658;DHT22;8462;53.156;8.220;2023-03-01T14:47:27;10.30;64.70
7658;DHT22;8462;53.156;8.220;2023-03-01T14:49:58;10.20;65.00
7658;DHT22;8462;53.156;8.220;2023-03-01T14:52:33;10.30;65.60
7658;DHT22;8462;53.156;8.220;2023-03-01T14:55:03;10.20;65.80
7658;DHT22;8462;53.156;8.220;2023-03-01T14:57:30;10.20;65.90
7658;DHT22;8462;53.156;8.220;2023-03-01T14:59:59;10.20;65.70
7658;DHT22;8462;53.156;8.220;2023-03-01T15:02:30;10.20;66.20
7658;DHT22;8462;53.156;8.220;2023-03-01T15:05:01;10.20;66.30
7658;DHT22;8462;53.156;8.220;2023-03-01T15:07:34;10.20;66.60
7658;DHT22;8462;53.156;8.220;2023-03-01T15:10:04;10.20;66.50
7658;DHT22;8462;53.156;8.220;2023-03-01T15:12:36;10.20;66.30
7658;DHT22;8462;53.156;8.220;2023-03-01T15:15:20;10.20;66.40
7658;DHT22;8462;53.156;8.220;2023-03-01T15:17:52;10.10;66.50
7658;DHT22;8462;53.156;8.220;2023-03-01T15:20:23;10.10;66.80
7658;DHT22;8462;53.156;8.220;2023-03-01T15:22:53;10.10;67.10
7658;DHT22;8462;53.156;8.220;2023-03-01T15:25:22;10.10;67.40
7658;DHT22;8462;53.156;8.220;2023-03-01T15:27:51;10.10;67.30
7658;DHT22;8462;53.156;8.220;2023-03-01T15:30:21;10.00;67.30
7658;DHT22;8462;53.156;8.220;2023-03-01T15:35:48;10.00;68.10
7658;DHT22;8462;53.156;8.220;2023-03-01T15:38:29;10.00;68.00
7658;DHT22;8462;53.156;8.220;2023-03-01T15:40:58;10.00;68.10
7658;DHT22;8462;53.156;8.220;2023-03-01T15:43:43;9.90;68.30
7658;DHT22;8462;53.156;8.220;2023-03-01T15:46:20;9.90;68.60
7658;DHT22;8462;53.156;8.220;2023-03-01T15:48:51;9.90;68.60
7658;DHT22;8462;53.156;8.220;2023-03-01T15:51:28;9.90;68.80
7658;DHT22;8462;53.156;8.220;2023-03-01T15:53:59;9.80;68.80
7658;DHT22;8462;53.156;8.220;2023-03-01T15:56:27;9.80;69.10
7658;DHT22;8462;53.156;8.220;2023-03-01T15:58:58;9.70;69.10
7658;DHT22;8462;53.156;8.220;2023-03-01T16:01:27;9.70;69.30
7658;DHT22;8462;53.156;8.220;2023-03-01T16:03:54;9.70;69.30
7658;DHT22;8462;53.156;8.220;2023-03-01T16:06:22;9.60;69.30
7658;DHT22;8462;53.156;8.220;2023-03-01T16:08:48;9.70;70.40
7658;DHT22;8462;53.156;8.220;2023-03-01T16:11:18;9.60;69.60
7658;DHT22;8462;53.156;8.220;2023-03-01T16:13:46;9.60;69.80
7658;DHT22;8462;53.156;8.220;2023-03-01T16:16:14;9.60;70.00
7658;DHT22;8462;53.156;8.220;2023-03-01T16:18:43;9.60;70.00
7658;DHT22;8462;53.156;8.220;2023-03-01T16:21:20;9.50;70.10
7658;DHT22;8462;53.156;8.220;2023-03-01T16:23:47;9.50;70.20
7658;DHT22;8462;53.156;8.220;2023-03-01T16:26:14;9.40;70.30
7658;DHT22;8462;53.156;8.220;2023-03-01T16:28:43;9.40;70.50
7658;DHT22;8462;53.156;8.220;2023-03-01T16:31:10;9.30;70.60
7658;DHT22;8462;53.156;8.220;2023-03-01T16:33:37;9.30;71.00
7658;DHT22;8462;53.156;8.220;2023-03-01T16:36:08;9.30;70.90
7658;DHT22;8462;53.156;8.220;2023-03-01T16:38:36;9.20;71.20
7658;DHT22;8462;53.156;8.220;2023-03-01T16:41:04;9.20;71.60
7658;DHT22;8462;53.156;8.220;2023-03-01T16:43:31;9.10;71.80
7658;DHT22;8462;53.156;8.220;2023-03-01T16:46:00;9.00;72.10
7658;DHT22;8462;53.156;8.220;2023-03-01T16:48:27;9.00;72.40
7658;DHT22;8462;53.156;8.220;2023-03-01T16:50:58;9.00;73.20
7658;DHT22;8462;53.156;8.220;2023-03-01T16:53:25;8.90;73.90
7658;DHT22;8462;53.156;8.220;2023-03-01T16:55:53;8.90;74.70
7658;DHT22;8462;53.156;8.220;2023-03-01T16:58:20;8.80;75.10